Time;durP1;ratioP1;P1;durP2;ratioP2;P2;SDS_P1;SDS_P2;PMS_P1;PMS_P2;Temp;Humidity;BMP_temperature;BMP_pressure;BME280_temperature;BME280_humidity;BME280_pressure;Samples;Min_cycle;Max_cycle;Signal;HPM_P1;HPM_P2
2021/04/11 00:01:52;;;;;;;26.03;10.80;;;5.60;90.70;;;;;;4412926;28;657593;-68
2021/04/11 00:04:40;;;;;;;29.90;11.20;;;5.60;90.80;;;;;;4424144;28;658592;-67
2021/04/11 00:07:28;;;;;;;25.43;10.90;;;5.60;91.20;;;;;;4411261;28;658023;-67
2021/04/11 00:10:15;;;;;;;30.30;11.40;;;5.50;91.20;;;;;;4428449;28;658309;-67
2021/04/11 00:13:03;;;;;;;24.93;10.50;;;5.50;91.30;;;;;;4410256;28;657937;-67
2021/04/11 00:15:50;;;;;;;28.60;10.17;;;5.50;91.60;;;;;;4414126;28;657771;-67
2021/04/11 00:18:37;;;;;;;24.43;10.33;;;5.60;91.10;;;;;;4402698;28;657319;-68
2021/04/11 00:21:24;;;;;;;23.83;9.57;;;5.60;90.90;;;;;;4431117;28;658678;-66
2021/04/11 00:24:13;;;;;;;21.77;9.63;;;5.70;90.60;;;;;;4413246;28;656713;-68
2021/04/11 00:27:00;;;;;;;25.73;10.77;;;5.80;90.90;;;;;;4427876;28;657530;-67
2021/04/11 00:29:47;;;;;;;22.63;9.33;;;5.80;90.70;;;;;;4411930;28;657513;-67
2021/04/11 00:32:34;;;;;;;28.33;9.27;;;5.80;90.60;;;;;;4432745;28;658229;-67
2021/04/11 00:35:21;;;;;;;26.20;9.60;;;5.80;90.60;;;;;;4430693;28;656815;-68
2021/04/11 00:38:08;;;;;;;24.98;9.25;;;5.80;90.90;;;;;;4436003;28;656688;-67
2021/04/11 00:40:59;;;;;;;23.93;9.17;;;5.70;91.10;;;;;;4423261;28;657929;-67
2021/04/11 00:43:46;;;;;;;22.73;9.50;;;5.70;91.10;;;;;;4398866;28;657093;-68
2021/04/11 00:46:39;;;;;;;23.00;9.60;;;5.70;91.40;;;;;;4430269;28;656546;-68
2021/04/11 00:49:29;;;;;;;18.77;8.43;;;5.70;91.20;;;;;;4394006;28;656250;-69
2021/04/11 00:52:18;;;;;;;25.20;8.17;;;5.70;90.90;;;;;;4414271;28;656829;-68
2021/04/11 00:55:05;;;;;;;23.13;8.07;;;5.70;91.20;;;;;;4424916;28;656557;-67
2021/04/11 00:57:54;;;;;;;17.73;7.23;;;5.80;91.20;;;;;;4403340;28;656601;-67
2021/04/11 01:00:41;;;;;;;18.23;7.47;;;5.80;91.00;;;;;;4428068;28;655885;-67
2021/04/11 01:03:29;;;;;;;19.43;8.00;;;5.80;90.80;;;;;;4402180;28;656363;-68
2021/04/11 01:06:18;;;;;;;19.37;8.13;;;5.80;90.60;;;;;;4413144;28;656311;-68
2021/04/11 01:09:10;;;;;;;19.20;7.80;;;5.80;90.80;;;;;;4431992;28;657169;-67
2021/04/11 01:11:58;;;;;;;21.63;8.13;;;5.80;91.40;;;;;;4388548;28;657100;-67
2021/04/11 01:14:46;;;;;;;20.90;7.97;;;5.70;91.10;;;;;;4433168;28;656689;-67
2021/04/11 01:17:33;;;;;;;15.87;7.20;;;5.70;91.00;;;;;;4400422;28;657570;-67
2021/04/11 01:20:20;;;;;;;15.93;7.60;;;5.70;91.30;;;;;;4429353;28;656671;-67
2021/04/11 01:23:18;;;;;;;18.10;7.60;;;5.70;91.10;;;;;;4412687;28;656876;-67
2021/04/11 01:26:06;;;;;;;18.27;6.87;;;5.80;91.10;;;;;;4408329;28;657421;-67
2021/04/11 01:28:53;;;;;;;19.63;6.77;;;5.80;91.20;;;;;;4411889;28;657549;-68
2021/04/11 01:31:40;;;;;;;18.73;6.93;;;5.80;90.70;;;;;;4429883;28;656125;-68
2021/04/11 01:34:28;;;;;;;23.30;7.77;;;5.90;90.40;;;;;;4412054;28;656738;-67
2021/04/11 01:37:16;;;;;;;17.90;6.80;;;5.90;90.30;;;;;;4431674;28;657430;-67
2021/04/11 01:40:04;;;;;;;18.90;7.27;;;5.90;90.20;;;;;;4412499;28;656439;-67
2021/04/11 01:42:52;;;;;;;16.67;7.30;;;5.90;90.10;;;;;;4420974;28;656471;-68
2021/04/11 01:45:40;;;;;;;16.10;7.10;;;5.90;90.30;;;;;;4435882;28;657577;-68
2021/04/11 01:48:27;;;;;;;16.57;7.67;;;5.90;90.30;;;;;;4412465;28;657563;-67
2021/04/11 01:51:15;;;;;;;17.97;8.00;;;5.80;90.40;;;;;;4429823;28;657239;-67
2021/04/11 01:54:03;;;;;;;19.33;8.00;;;5.70;90.50;;;;;;4411387;28;657074;-68
2021/04/11 01:56:50;;;;;;;17.23;7.73;;;5.70;90.60;;;;;;4422970;28;656844;-67
2021/04/11 01:59:38;;;;;;;18.20;7.47;;;5.60;90.70;;;;;;4407527;28;657127;-68
2021/04/11 02:02:25;;;;;;;18.37;7.80;;;5.60;90.90;;;;;;4430475;28;658122;-67
2021/04/11 02:05:14;;;;;;;13.97;6.47;;;5.50;91.10;;;;;;4411995;28;656969;-68
2021/04/11 02:08:01;;;;;;;19.00;7.07;;;5.50;91.50;;;;;;4412077;28;656524;-68
2021/04/11 02:10:49;;;;;;;19.85;7.63;;;5.40;91.40;;;;;;4434272;28;656884;-67
2021/04/11 02:13:37;;;;;;;16.17;7.17;;;5.40;91.60;;;;;;4410520;28;656855;-68
2021/04/11 02:16:27;;;;;;;19.47;6.53;;;5.40;91.60;;;;;;4434444;28;657735;-67
2021/04/11 02:19:15;;;;;;;15.97;7.33;;;5.30;91.80;;;;;;4407910;28;657203;-67
2021/04/11 02:22:05;;;;;;;15.17;6.10;;;5.30;91.70;;;;;;4401100;28;657308;-68
2021/04/11 02:24:52;;;;;;;16.40;6.77;;;5.20;91.90;;;;;;4409033;28;656527;-68
2021/04/11 02:27:39;;;;;;;14.43;6.40;;;5.20;91.90;;;;;;4430725;28;657718;-68
2021/04/11 02:30:27;;;;;;;15.50;6.73;;;5.20;91.90;;;;;;4411858;28;656693;-67
2021/04/11 02:33:15;;;;;;;13.83;6.07;;;5.10;92.10;;;;;;4428137;28;657165;-67
2021/04/11 02:36:02;;;;;;;15.50;6.33;;;5.10;92.40;;;;;;4411134;28;657006;-67
2021/04/11 02:38:51;;;;;;;16.03;6.90;;;5.00;92.40;;;;;;4430734;28;658053;-67
2021/04/11 02:41:38;;;;;;;18.77;6.80;;;4.90;92.60;;;;;;4408456;28;656672;-67
2021/04/11 02:44:25;;;;;;;18.07;7.33;;;4.90;92.90;;;;;;4430534;28;656859;-67
2021/04/11 02:47:12;;;;;;;14.80;6.27;;;4.80;93.30;;;;;;4411541;28;656733;-67
2021/04/11 02:50:00;;;;;;;14.63;6.93;;;4.80;93.20;;;;;;4433256;28;657246;-68
2021/04/11 02:52:49;;;;;;;15.25;6.30;;;4.70;93.30;;;;;;4405230;28;656964;-67
2021/04/11 02:55:39;;;;;;;18.43;6.73;;;4.70;93.70;;;;;;4406473;28;657145;-68
2021/04/11 02:58:26;;;;;;;15.13;6.73;;;4.60;94.10;;;;;;4411375;28;656479;-68
2021/04/11 03:01:14;;;;;;;14.23;6.60;;;4.60;94.20;;;;;;4428286;28;656388;-67
2021/04/11 03:04:01;;;;;;;15.25;6.63;;;4.50;94.40;;;;;;4406637;28;656802;-68
2021/04/11 03:06:52;;;;;;;18.00;6.70;;;4.50;95.00;;;;;;4428257;28;656676;-67
2021/04/11 03:09:40;;;;;;;12.43;5.60;;;4.50;95.30;;;;;;4400990;28;656480;-67
2021/04/11 03:12:27;;;;;;;15.90;6.40;;;4.40;95.40;;;;;;4410930;28;656807;-67
2021/04/11 03:15:14;;;;;;;19.97;6.60;;;4.40;95.80;;;;;;4434094;28;657210;-67
2021/04/11 03:18:01;;;;;;;16.05;6.55;;;4.40;96.00;;;;;;4414881;28;656643;-68
2021/04/11 03:20:48;;;;;;;13.25;5.65;;;4.40;96.40;;;;;;4433637;28;656659;-67
2021/04/11 03:23:36;;;;;;;11.80;5.77;;;4.40;96.70;;;;;;4419885;28;656685;-68
2021/04/11 03:26:25;;;;;;;12.93;5.80;;;4.40;96.90;;;;;;4408228;28;656949;-67
2021/04/11 03:29:14;;;;;;;14.40;6.23;;;4.50;97.20;;;;;;4410770;28;656589;-67
2021/04/11 03:32:04;;;;;;;14.85;5.80;;;4.50;97.30;;;;;;4414028;28;656253;-68
2021/04/11 03:34:52;;;;;;;16.67;6.03;;;4.50;97.50;;;;;;4413772;28;656694;-67
2021/04/11 03:37:39;;;;;;;11.33;5.10;;;4.40;97.50;;;;;;4433349;28;658159;-68
2021/04/11 03:40:29;;;;;;;14.23;6.00;;;4.50;97.60;;;;;;4414108;28;656583;-68
2021/04/11 03:43:18;;;;;;;13.57;6.07;;;4.50;97.70;;;;;;4433051;28;656762;-67
2021/04/11 03:46:06;;;;;;;13.47;6.47;;;4.50;97.60;;;;;;4419967;28;657408;-67
2021/04/11 03:48:57;;;;;;;15.37;6.37;;;4.50;97.80;;;;;;4407912;28;657264;-67
2021/04/11 03:51:44;;;;;;;15.67;6.30;;;4.60;97.90;;;;;;4405979;28;657548;-67
2021/04/11 03:54:34;;;;;;;12.43;5.47;;;4.60;98.00;;;;;;4418638;28;657153;-68
2021/04/11 03:57:24;;;;;;;14.60;6.50;;;4.60;98.20;;;;;;4409638;28;656377;-67
2021/04/11 04:00:12;;;;;;;15.77;6.43;;;4.60;98.20;;;;;;4428112;28;657447;-69
2021/04/11 04:03:02;;;;;;;15.67;6.13;;;4.60;98.40;;;;;;4436939;28;658414;-67
2021/04/11 04:05:49;;;;;;;13.75;6.10;;;4.60;98.40;;;;;;4413541;28;658086;-67
2021/04/11 04:08:37;;;;;;;11.40;5.80;;;4.60;98.60;;;;;;4414113;28;656718;-68
2021/04/11 04:11:45;;;;;;;19.37;7.87;;;4.60;98.70;;;;;;4432779;28;657111;-67
2021/04/11 04:14:38;;;;;;;16.07;7.27;;;4.70;98.80;;;;;;4382389;28;656613;-67
2021/04/11 04:17:28;;;;;;;18.37;6.30;;;4.70;98.70;;;;;;4406157;28;656258;-67
2021/04/11 04:20:16;;;;;;;15.53;5.50;;;4.70;98.80;;;;;;4409044;28;657956;-67
2021/04/11 04:23:12;;;;;;;14.77;6.67;;;4.80;99.00;;;;;;4401445;28;657562;-67
2021/04/11 04:26:10;;;;;;;16.03;6.30;;;4.80;98.90;;;;;;4404767;28;657123;-67
2021/04/11 04:28:58;;;;;;;25.60;10.57;;;4.90;99.00;;;;;;4384708;28;657316;-68
2021/04/11 04:31:55;;;;;;;25.93;10.67;;;5.00;99.00;;;;;;4430672;28;657737;-67
2021/04/11 04:34:44;;;;;;;27.27;10.77;;;5.00;99.00;;;;;;4385152;28;658597;-67
2021/04/11 04:37:34;;;;;;;27.60;11.50;;;5.10;98.90;;;;;;4424852;28;657334;-68
2021/04/11 04:40:30;;;;;;;26.50;10.13;;;5.30;99.10;;;;;;4412480;28;657715;-68
2021/04/11 04:43:20;;;;;;;24.03;8.17;;;5.30;98.80;;;;;;4385174;28;659001;-68
2021/04/11 04:46:10;;;;;;;18.30;7.13;;;5.50;98.70;;;;;;4400817;28;657704;-67
2021/04/11 04:49:00;;;;;;;18.97;7.80;;;5.50;98.50;;;;;;4404689;28;656583;-68
2021/04/11 04:51:48;;;;;;;17.90;9.03;;;5.70;98.50;;;;;;4404119;28;657068;-68
2021/04/11 04:54:37;;;;;;;20.23;8.83;;;5.80;98.50;;;;;;4426043;28;656798;-67
2021/04/11 04:57:26;;;;;;;20.57;7.90;;;6.00;98.40;;;;;;4405850;28;657251;-67
2021/04/11 05:00:14;;;;;;;14.47;6.87;;;6.20;98.10;;;;;;4407670;28;657392;-68
2021/04/11 05:03:04;;;;;;;16.20;7.23;;;6.30;97.70;;;;;;4413475;28;656686;-68
2021/04/11 05:05:54;;;;;;;16.60;6.27;;;6.40;97.60;;;;;;4426729;28;656724;-68
2021/04/11 05:08:43;;;;;;;16.83;6.60;;;6.60;97.30;;;;;;4435767;28;656398;-67
2021/04/11 05:11:33;;;;;;;14.00;6.53;;;6.80;97.30;;;;;;4408750;28;656880;-67
2021/04/11 05:14:21;;;;;;;17.20;6.33;;;6.90;96.90;;;;;;4408123;28;656569;-67
2021/04/11 05:17:13;;;;;;;20.50;6.33;;;7.10;96.80;;;;;;4412691;28;657115;-67
2021/04/11 05:20:02;;;;;;;18.35;6.30;;;7.20;96.60;;;;;;4409374;28;656688;-68
2021/04/11 05:22:54;;;;;;;11.93;6.03;;;7.40;96.40;;;;;;4407674;28;658041;-67
2021/04/11 05:25:44;;;;;;;14.93;5.60;;;7.60;96.20;;;;;;4408019;28;657112;-67
2021/04/11 05:28:35;;;;;;;14.83;5.30;;;7.80;95.80;;;;;;4408010;28;656801;-67
2021/04/11 05:31:31;;;;;;;12.67;5.73;;;8.00;95.60;;;;;;4412262;28;656294;-68
2021/04/11 05:34:19;;;;;;;12.93;5.13;;;8.20;95.30;;;;;;4408205;28;656873;-67
2021/04/11 05:37:15;;;;;;;10.60;5.03;;;8.40;95.30;;;;;;4426152;28;656190;-68
2021/04/11 05:40:06;;;;;;;15.37;5.70;;;8.60;94.90;;;;;;4389357;28;656823;-68
2021/04/11 05:42:55;;;;;;;13.23;5.73;;;8.80;94.50;;;;;;4401373;28;658252;-68
2021/04/11 05:45:47;;;;;;;14.47;5.43;;;8.90;94.20;;;;;;4404230;28;656684;-68
2021/04/11 05:48:37;;;;;;;11.33;5.00;;;9.10;93.70;;;;;;4391018;28;657185;-67
2021/04/11 05:51:25;;;;;;;8.77;4.90;;;9.30;93.20;;;;;;4407599;28;656966;-68
2021/04/11 05:54:14;;;;;;;11.17;4.93;;;9.50;92.90;;;;;;4413512;28;655450;-67
2021/04/11 05:57:05;;;;;;;13.30;5.07;;;9.70;92.60;;;;;;4403648;28;656593;-68
2021/04/11 05:59:53;;;;;;;11.43;4.50;;;9.80;92.30;;;;;;4401634;28;656758;-68
2021/04/11 06:02:41;;;;;;;12.20;4.27;;;10.10;91.30;;;;;;4422653;28;656857;-68
2021/04/11 06:05:29;;;;;;;9.70;4.00;;;10.20;91.10;;;;;;4406587;28;659611;-67
2021/04/11 06:08:21;;;;;;;10.38;5.00;;;10.40;91.00;;;;;;4416841;28;656486;-68
2021/04/11 06:11:12;;;;;;;9.83;5.13;;;10.60;91.20;;;;;;4403147;28;658909;-68
2021/04/11 06:14:00;;;;;;;14.03;4.40;;;10.80;90.30;;;;;;4409239;28;657489;-67
2021/04/11 06:16:47;;;;;;;11.90;5.00;;;10.90;89.50;;;;;;4406731;28;657603;-68
2021/04/11 06:19:34;;;;;;;12.33;4.30;;;11.10;89.10;;;;;;4424655;28;659170;-67
2021/04/11 06:22:24;;;;;;;7.37;3.73;;;11.20;88.00;;;;;;4410728;28;657302;-68
2021/04/11 06:25:14;;;;;;;6.23;3.23;;;11.40;87.00;;;;;;4407475;28;656724;-69
2021/04/11 06:28:06;;;;;;;9.33;3.70;;;11.50;84.10;;;;;;4408834;28;657472;-68
2021/04/11 06:30:56;;;;;;;8.70;3.73;;;11.60;84.60;;;;;;4404895;28;657217;-68
2021/04/11 06:33:44;;;;;;;9.57;3.87;;;11.80;85.10;;;;;;4406977;28;656552;-68
2021/04/11 06:36:32;;;;;;;10.67;3.43;;;11.90;83.40;;;;;;4431127;28;656514;-67
2021/04/11 06:39:21;;;;;;;9.77;3.73;;;12.10;81.40;;;;;;4406230;28;657930;-68
2021/04/11 06:42:31;;;;;;;7.30;3.93;;;12.20;81.30;;;;;;4408039;28;657489;-67
2021/04/11 06:45:28;;;;;;;8.90;3.83;;;12.30;80.50;;;;;;4412262;28;656621;-67
2021/04/11 06:48:37;;;;;;;7.27;3.30;;;12.40;78.90;;;;;;4406353;28;656638;-68
2021/04/11 06:51:35;;;;;;;11.70;3.67;;;12.60;77.70;;;;;;4411905;28;656989;-67
2021/04/11 06:54:44;;;;;;;8.73;3.57;;;12.70;78.60;;;;;;4388595;28;658061;-68
2021/04/11 06:57:46;;;;;;;6.70;3.42;;;12.90;78.40;;;;;;4410867;28;656509;-68
2021/04/11 07:00:49;;;;;;;7.60;4.07;;;13.00;77.30;;;;;;4382820;28;657377;-70
2021/04/11 07:04:00;;;;;;;12.23;3.97;;;13.20;76.30;;;;;;4387793;28;657062;-68
2021/04/11 07:07:14;;;;;;;8.77;3.73;;;13.30;75.00;;;;;;4410539;28;657899;-67
2021/04/11 07:10:11;;;;;;;9.00;4.60;;;13.40;74.50;;;;;;4399288;28;656653;-71
2021/04/11 07:13:27;;;;;;;10.87;3.90;;;13.50;73.70;;;;;;4405981;28;656368;-74
2021/04/11 07:16:35;;;;;;;7.97;3.40;;;13.70;73.50;;;;;;4407552;28;657700;-73
2021/04/11 07:19:38;;;;;;;11.07;3.50;;;13.70;72.70;;;;;;4387240;28;657449;-73
2021/04/11 07:22:53;;;;;;;5.03;3.03;;;13.90;73.00;;;;;;4407071;28;658424;-72
2021/04/11 07:25:49;;;;;;;10.27;3.67;;;14.10;72.30;;;;;;4408143;28;656675;-72
2021/04/11 07:28:40;;;;;;;9.37;3.57;;;14.20;71.30;;;;;;4399993;28;657601;-72
2021/04/11 07:31:39;;;;;;;11.93;3.73;;;14.40;71.60;;;;;;4412404;28;656856;-71
2021/04/11 07:34:34;;;;;;;7.97;3.50;;;14.50;67.90;;;;;;4394821;28;658360;-69
2021/04/11 07:37:53;;;;;;;6.27;3.27;;;14.60;68.90;;;;;;4408115;28;657182;-71
2021/04/11 07:41:08;;;;;;;11.27;3.67;;;14.70;69.00;;;;;;4407955;28;656207;-72
2021/04/11 07:44:15;;;;;;;11.33;3.57;;;14.90;69.20;;;;;;4399151;28;658344;-72
2021/04/11 07:47:47;;;;;;;10.87;3.50;;;15.10;69.10;;;;;;4331743;28;658783;-71
2021/04/11 07:50:44;;;;;;;7.27;3.73;;;15.20;67.20;;;;;;4243413;29;658049;-71
2021/04/11 07:54:09;;;;;;;9.40;3.73;;;15.50;67.20;;;;;;4250791;29;656410;-69
2021/04/11 07:57:07;;;;;;;9.27;3.70;;;15.80;67.40;;;;;;4223275;29;656583;-69
2021/04/11 08:00:09;;;;;;;10.10;4.50;;;16.00;66.90;;;;;;4247049;29;657219;-69
2021/04/11 08:03:17;;;;;;;7.80;4.33;;;16.20;67.10;;;;;;4244100;29;657683;-70
2021/04/11 08:06:24;;;;;;;14.83;5.20;;;16.30;66.70;;;;;;4227567;29;656206;-71
2021/04/11 08:09:20;;;;;;;10.10;4.70;;;16.50;65.70;;;;;;4221326;29;657642;-69
2021/04/11 08:12:34;;;;;;;12.30;4.87;;;16.70;66.90;;;;;;4223616;29;658225;-71
2021/04/11 08:15:26;;;;;;;11.10;4.97;;;16.80;65.80;;;;;;4225519;29;657599;-69
2021/04/11 08:18:46;;;;;;;9.33;4.87;;;16.80;63.30;;;;;;4250160;29;657717;-71
2021/04/11 08:21:36;;;;;;;11.57;3.90;;;17.00;65.40;;;;;;4258682;29;656178;-71
2021/04/11 08:24:54;;;;;;;12.83;4.20;;;17.30;65.10;;;;;;4286652;29;658044;-71
2021/04/11 08:27:59;;;;;;;13.73;4.70;;;17.40;62.80;;;;;;4313258;28;657390;-69
2021/04/11 08:30:51;;;;;;;8.80;3.67;;;17.70;62.20;;;;;;4364976;28;657775;-70
2021/04/11 08:34:02;;;;;;;7.50;3.50;;;17.90;59.70;;;;;;4409803;28;656986;-71
2021/04/11 08:36:58;;;;;;;7.40;3.17;;;18.10;58.40;;;;;;4354939;28;656621;-70
2021/04/11 08:39:47;;;;;;;7.57;3.37;;;18.20;57.80;;;;;;4355723;28;656183;-72
2021/04/11 08:42:52;;;;;;;10.07;3.50;;;18.20;56.60;;;;;;4356055;28;658476;-71
2021/04/11 08:45:50;;;;;;;8.80;3.17;;;18.50;57.50;;;;;;4328874;28;657875;-72
2021/04/11 08:48:46;;;;;;;7.83;2.60;;;18.50;56.40;;;;;;4336635;28;657174;-71
2021/04/11 08:51:36;;;;;;;7.20;2.53;;;18.70;56.40;;;;;;4333375;28;656816;-72
2021/04/11 08:54:26;;;;;;;8.87;2.87;;;19.10;55.80;;;;;;4357690;28;657146;-70
2021/04/11 08:57:16;;;;;;;7.97;2.30;;;19.00;57.10;;;;;;4359926;28;656928;-69
2021/04/11 09:00:07;;;;;;;5.23;2.23;;;19.00;54.40;;;;;;4354978;28;658448;-70
2021/04/11 09:03:08;;;;;;;5.50;2.30;;;19.10;53.50;;;;;;4355815;28;657743;-71
2021/04/11 09:06:02;;;;;;;6.13;2.67;;;19.30;55.20;;;;;;4355275;28;657262;-71
2021/04/11 09:08:58;;;;;;;6.50;2.70;;;19.40;51.70;;;;;;4355040;28;656973;-70
2021/04/11 09:11:48;;;;;;;6.40;2.70;;;19.40;53.00;;;;;;4392248;28;656418;-71
2021/04/11 09:14:41;;;;;;;6.17;2.50;;;19.40;52.70;;;;;;4401249;28;658015;-71
2021/04/11 09:17:39;;;;;;;7.88;2.88;;;19.30;52.50;;;;;;4408320;28;656549;-71
2021/04/11 09:20:28;;;;;;;12.20;2.80;;;19.30;53.10;;;;;;4402199;28;656593;-70
2021/04/11 09:23:25;;;;;;;9.07;2.63;;;19.40;53.70;;;;;;4430559;28;657308;-70
2021/04/11 09:26:33;;;;;;;6.80;2.60;;;19.40;51.70;;;;;;4386080;28;656659;-71
2021/04/11 09:29:32;;;;;;;5.67;2.30;;;19.50;53.30;;;;;;4315785;28;656930;-72
2021/04/11 09:32:56;;;;;;;5.83;2.30;;;19.70;50.70;;;;;;4321424;28;657437;-72
2021/04/11 09:35:45;;;;;;;5.30;2.23;;;20.10;51.40;;;;;;4291961;28;657926;-70
2021/04/11 09:39:05;;;;;;;5.30;1.80;;;20.10;49.70;;;;;;4315479;28;656356;-68
2021/04/11 09:42:09;;;;;;;5.63;2.10;;;20.00;48.80;;;;;;4312563;28;656816;-70
2021/04/11 09:45:13;;;;;;;6.50;2.07;;;19.70;51.00;;;;;;4296100;28;656842;-72
2021/04/11 09:48:23;;;;;;;8.20;2.70;;;19.90;52.40;;;;;;4320911;28;656415;-73
2021/04/11 09:51:20;;;;;;;8.90;2.27;;;20.40;50.60;;;;;;4316909;28;656562;-70
2021/04/11 09:54:13;;;;;;;4.27;2.03;;;20.70;49.80;;;;;;4320027;28;656477;-71
2021/04/11 09:57:27;;;;;;;6.33;2.30;;;20.60;50.20;;;;;;4309445;28;658121;-72
2021/04/11 10:00:20;;;;;;;5.67;2.20;;;20.80;48.40;;;;;;4316023;28;656998;-72
2021/04/11 10:03:33;;;;;;;5.77;1.50;;;21.00;46.90;;;;;;4302149;28;657336;-70
2021/04/11 10:06:29;;;;;;;7.20;1.17;;;20.70;46.50;;;;;;4318013;28;657055;-73
2021/04/11 10:09:41;;;;;;;4.07;1.10;;;20.20;48.80;;;;;;4318847;28;656556;-69
2021/04/11 10:12:51;;;;;;;5.77;1.00;;;20.20;46.70;;;;;;4381026;28;657434;-68
2021/04/11 10:15:41;;;;;;;3.03;0.90;;;20.00;48.60;;;;;;4384056;28;656856;-71
2021/04/11 10:18:40;;;;;;;6.87;1.27;;;20.00;50.80;;;;;;4410837;28;657757;-73
2021/04/11 10:21:28;;;;;;;1.70;0.80;;;19.70;49.50;;;;;;4382621;28;656810;-69
2021/04/11 10:24:23;;;;;;;2.53;0.70;;;20.00;51.00;;;;;;4430787;28;657250;-66
2021/04/11 10:27:13;;;;;;;1.63;0.90;;;19.50;48.90;;;;;;4401105;28;657040;-71
2021/04/11 10:30:00;;;;;;;2.33;0.97;;;19.30;50.60;;;;;;4408316;28;657172;-70
2021/04/11 10:32:50;;;;;;;6.63;1.10;;;19.40;49.10;;;;;;4411994;28;656189;-67
2021/04/11 10:35:41;;;;;;;6.97;1.20;;;19.70;48.60;;;;;;4412115;28;656898;-68
2021/04/11 10:38:30;;;;;;;3.33;1.10;;;20.30;50.10;;;;;;4408184;28;656857;-67
2021/04/11 10:41:53;;;;;;;2.67;0.77;;;20.60;48.40;;;;;;4411754;28;656885;-70
2021/04/11 10:45:02;;;;;;;1.60;0.70;;;20.30;48.40;;;;;;4333949;28;657109;-66
2021/04/11 10:48:26;;;;;;;3.67;0.90;;;19.80;49.50;;;;;;4337819;28;657139;-69
2021/04/11 10:51:23;;;;;;;1.73;0.77;;;20.10;48.90;;;;;;4315935;28;657617;-70
2021/04/11 10:54:20;;;;;;;1.40;0.90;;;20.00;50.20;;;;;;4336914;28;656682;-68
2021/04/11 10:57:31;;;;;;;3.27;1.00;;;19.50;49.30;;;;;;4339406;28;656143;-66
2021/04/11 11:00:23;;;;;;;4.97;1.20;;;19.20;50.50;;;;;;4278285;28;657274;-66
2021/04/11 11:03:59;;;;;;;3.80;0.83;;;19.70;50.90;;;;;;4304091;28;656968;-67
2021/04/11 11:07:15;;;;;;;3.77;1.10;;;20.20;50.20;;;;;;4293848;28;657447;-67
2021/04/11 11:10:07;;;;;;;4.90;1.20;;;19.60;49.70;;;;;;4282814;29;657286;-66
2021/04/11 11:13:02;;;;;;;7.17;1.37;;;19.00;50.10;;;;;;4303243;28;658840;-67
2021/04/11 11:16:02;;;;;;;3.67;1.10;;;18.70;51.20;;;;;;4302977;28;656968;-66
2021/04/11 11:19:00;;;;;;;4.22;1.10;;;18.50;52.40;;;;;;4316320;28;656721;-66
2021/04/11 11:22:17;;;;;;;2.00;1.10;;;18.50;52.00;;;;;;4323890;28;657924;-66
2021/04/11 11:25:28;;;;;;;3.97;0.80;;;18.50;53.40;;;;;;4330777;28;657010;-66
2021/04/11 11:28:36;;;;;;;1.93;1.00;;;18.70;51.20;;;;;;4347350;28;657624;-72
2021/04/11 11:31:31;;;;;;;2.37;0.90;;;18.20;53.40;;;;;;4332900;28;657256;-68
2021/04/11 11:34:27;;;;;;;3.97;1.20;;;18.00;54.20;;;;;;4325315;28;657486;-71
2021/04/11 11:37:23;;;;;;;1.67;0.93;;;17.70;54.10;;;;;;4353837;28;656936;-71
2021/04/11 11:40:15;;;;;;;4.43;1.27;;;17.80;55.30;;;;;;4365073;28;657206;-71
2021/04/11 11:43:16;;;;;;;3.77;1.20;;;17.70;53.60;;;;;;4378626;28;657116;-70
2021/04/11 11:46:11;;;;;;;3.77;1.10;;;17.70;55.50;;;;;;4410701;28;656351;-73
2021/04/11 11:49:05;;;;;;;5.57;1.20;;;17.60;54.90;;;;;;4410052;28;657032;-74
2021/04/11 11:52:01;;;;;;;3.17;1.10;;;17.50;55.30;;;;;;4388457;28;657330;-67
2021/04/11 11:54:57;;;;;;;1.47;0.80;;;17.30;55.10;;;;;;4387954;28;657646;-69
2021/04/11 11:57:46;;;;;;;1.47;0.80;;;17.20;56.40;;;;;;4407302;28;657014;-69
2021/04/11 12:00:34;;;;;;;0.60;0.60;;;17.00;56.90;;;;;;4411200;28;657763;-66
2021/04/11 12:03:25;;;;;;;2.67;0.80;;;16.80;57.30;;;;;;4415953;28;656545;-66
2021/04/11 12:06:15;;;;;;;1.93;0.70;;;16.60;58.30;;;;;;4399143;28;657744;-66
2021/04/11 12:09:11;;;;;;;2.27;0.80;;;16.40;59.00;;;;;;4410765;28;656661;-66
2021/04/11 12:12:01;;;;;;;3.87;0.90;;;16.60;60.30;;;;;;4387972;28;657121;-74
2021/04/11 12:14:54;;;;;;;0.97;0.60;;;16.90;59.40;;;;;;4415102;28;657605;-67
2021/04/11 12:17:45;;;;;;;0.50;0.50;;;16.80;58.80;;;;;;4387510;28;657441;-66
2021/04/11 12:20:35;;;;;;;3.13;0.90;;;16.90;58.60;;;;;;4414453;28;657344;-67
2021/04/11 12:23:24;;;;;;;1.13;0.63;;;17.10;59.10;;;;;;4411701;28;656383;-66
2021/04/11 12:26:12;;;;;;;2.93;0.90;;;16.90;60.30;;;;;;4411191;28;656573;-66
2021/04/11 12:29:06;;;;;;;1.37;0.80;;;17.00;59.00;;;;;;4425650;28;657520;-67
2021/04/11 12:31:54;;;;;;;1.60;0.70;;;16.90;60.30;;;;;;4414902;28;656865;-67
2021/04/11 12:34:48;;;;;;;3.33;0.90;;;16.80;59.30;;;;;;4414315;28;656151;-66
2021/04/11 12:37:38;;;;;;;3.13;0.80;;;16.60;60.70;;;;;;4409742;28;656757;-66
2021/04/11 12:40:30;;;;;;;2.93;0.90;;;16.40;61.00;;;;;;4407415;28;656491;-66
2021/04/11 12:43:20;;;;;;;2.60;0.80;;;16.20;62.30;;;;;;4386915;28;657280;-66
2021/04/11 12:46:12;;;;;;;3.20;0.80;;;16.00;62.20;;;;;;4404051;28;656685;-66
2021/04/11 12:49:03;;;;;;;2.83;0.80;;;15.80;62.10;;;;;;4409608;28;657300;-66
2021/04/11 12:51:53;;;;;;;2.80;0.97;;;15.80;62.40;;;;;;4410013;28;657514;-66
2021/04/11 12:54:41;;;;;;;3.07;1.00;;;15.70;63.60;;;;;;4408847;28;658186;-66
2021/04/11 12:57:30;;;;;;;4.57;2.20;;;15.80;62.90;;;;;;4409665;28;657649;-66
2021/04/11 13:00:21;;;;;;;6.13;0.97;;;16.00;62.40;;;;;;4407194;28;656508;-66
2021/04/11 13:03:13;;;;;;;4.10;1.10;;;16.10;63.00;;;;;;4412241;28;656414;-67
2021/04/11 13:06:09;;;;;;;3.43;1.20;;;15.90;62.50;;;;;;4405653;28;656908;-70
2021/04/11 13:09:20;;;;;;;5.07;1.87;;;15.70;63.10;;;;;;4389653;28;658025;-68
2021/04/11 13:12:12;;;;;;;2.17;1.17;;;15.80;64.30;;;;;;4409401;28;657075;-67
2021/04/11 13:15:03;;;;;;;1.90;1.00;;;15.80;62.40;;;;;;4410090;28;657204;-72
2021/04/11 13:17:57;;;;;;;2.17;1.00;;;15.70;62.50;;;;;;4409793;28;657424;-67
2021/04/11 13:20:56;;;;;;;2.03;0.90;;;15.60;63.90;;;;;;4408005;28;656843;-67
2021/04/11 13:23:48;;;;;;;2.37;1.20;;;15.50;62.90;;;;;;4405641;28;656564;-66
2021/04/11 13:26:40;;;;;;;4.90;1.13;;;15.40;63.50;;;;;;4403997;28;656871;-66
2021/04/11 13:29:32;;;;;;;1.70;0.87;;;15.40;63.80;;;;;;4412637;28;656639;-66
2021/04/11 13:32:28;;;;;;;6.73;1.40;;;15.20;63.70;;;;;;4405618;28;657003;-67
2021/04/11 13:35:18;;;;;;;5.03;1.30;;;15.00;64.90;;;;;;4402712;28;657209;-67
2021/04/11 13:38:08;;;;;;;0.87;0.80;;;15.00;63.90;;;;;;4402691;28;656580;-66
2021/04/11 13:41:09;;;;;;;3.67;1.30;;;14.90;64.80;;;;;;4402989;28;656571;-66
2021/04/11 13:43:59;;;;;;;3.83;1.80;;;14.90;65.30;;;;;;4390214;28;657356;-66
2021/04/11 13:46:50;;;;;;;5.43;1.43;;;14.90;64.70;;;;;;4413084;28;657122;-66
2021/04/11 13:49:39;;;;;;;1.80;1.10;;;15.00;64.40;;;;;;4412839;28;656815;-66
2021/04/11 13:52:29;;;;;;;1.83;1.03;;;15.00;64.50;;;;;;4412933;28;656484;-66
2021/04/11 13:55:21;;;;;;;2.60;1.20;;;14.90;64.80;;;;;;4416303;28;656570;-66
2021/04/11 13:58:15;;;;;;;2.60;1.10;;;14.80;64.70;;;;;;4409164;28;657274;-69
2021/04/11 14:01:04;;;;;;;2.40;1.20;;;14.70;65.60;;;;;;4385022;28;658223;-66
2021/04/11 14:03:55;;;;;;;4.40;1.17;;;14.70;65.00;;;;;;4426572;28;656804;-66
2021/04/11 14:06:49;;;;;;;5.33;1.23;;;15.00;64.90;;;;;;4412236;28;656498;-66
2021/04/11 14:09:39;;;;;;;2.87;1.60;;;15.30;64.90;;;;;;4394134;28;656334;-67
2021/04/11 14:12:30;;;;;;;3.70;1.20;;;15.50;64.30;;;;;;4423388;28;656722;-67
2021/04/11 14:15:21;;;;;;;5.33;1.17;;;15.60;63.90;;;;;;4413285;28;657069;-66
2021/04/11 14:18:14;;;;;;;2.87;1.40;;;15.80;62.70;;;;;;4403199;28;657313;-67
2021/04/11 14:21:09;;;;;;;7.53;1.33;;;15.70;64.00;;;;;;4389966;28;656896;-66
2021/04/11 14:24:02;;;;;;;2.53;1.17;;;15.30;62.80;;;;;;4381734;28;656558;-66
2021/04/11 14:26:52;;;;;;;10.07;1.50;;;15.20;64.10;;;;;;4408747;28;656926;-66
2021/04/11 14:29:43;;;;;;;2.63;1.70;;;15.00;67.20;;;;;;4396696;28;658723;-66
2021/04/11 14:32:33;;;;;;;3.50;1.67;;;15.00;65.70;;;;;;4401483;28;656637;-66
2021/04/11 14:35:21;;;;;;;4.03;1.90;;;14.80;64.70;;;;;;4407783;28;656440;-67
2021/04/11 14:38:17;;;;;;;2.93;1.57;;;14.90;65.30;;;;;;4402118;28;657468;-66
2021/04/11 14:41:07;;;;;;;3.47;1.27;;;14.80;64.30;;;;;;4412206;28;656786;-66
2021/04/11 14:43:55;;;;;;;3.47;1.53;;;14.90;64.60;;;;;;4408009;28;657198;-67
2021/04/11 14:46:46;;;;;;;2.47;1.50;;;14.80;64.60;;;;;;4408352;28;656566;-68
2021/04/11 14:49:33;;;;;;;3.53;1.90;;;14.60;65.60;;;;;;4408149;28;657421;-70
2021/04/11 14:52:24;;;;;;;10.30;2.63;;;14.60;66.30;;;;;;4430260;28;656963;-70